createdAt,value
2018-08-23T00:01:29.665Z,34.40
2018-08-23T00:04:02.752Z,34.43
2018-08-23T00:06:31.129Z,31.02
2018-08-23T00:08:59.519Z,31.17
2018-08-23T00:11:31.540Z,30.88
2018-08-23T00:13:59.902Z,32.30
2018-08-23T00:16:36.574Z,31.80
2018-08-23T00:19:05.163Z,32.28
2018-08-23T00:21:37.945Z,34.38
2018-08-23T00:24:09.562Z,32.55
2018-08-23T00:26:39.098Z,31.77
2018-08-23T00:29:17.192Z,30.32
2018-08-23T00:31:52.302Z,33.67
2018-08-23T00:34:21.550Z,35.43
2018-08-23T00:36:49.891Z,35.10
2018-08-23T00:39:18.400Z,39.20
2018-08-23T00:41:52.026Z,35.20
2018-08-23T00:44:20.347Z,35.55
2018-08-23T00:46:48.739Z,36.17
2018-08-23T00:49:17.728Z,36.13
2018-08-23T00:51:46.504Z,33.65
2018-08-23T00:54:14.913Z,34.08
2018-08-23T00:56:43.253Z,33.40
2018-08-23T00:59:12.337Z,34.27
2018-08-23T01:01:45.467Z,37.00
2018-08-23T01:04:18.280Z,34.37
2018-08-23T01:06:46.757Z,33.88
2018-08-23T01:09:15.237Z,36.08
2018-08-23T01:11:46.256Z,34.13
2018-08-23T01:14:14.608Z,36.68
2018-08-23T01:16:48.883Z,33.70
2018-08-23T01:19:22.604Z,39.40
2018-08-23T01:21:55.127Z,38.28
2018-08-23T01:24:27.844Z,40.35
2018-08-23T01:26:56.664Z,36.75
2018-08-23T01:29:28.890Z,42.33
2018-08-23T01:32:16.123Z,39.00
2018-08-23T01:34:44.455Z,38.60
2018-08-23T01:37:18.479Z,38.05
2018-08-23T01:39:46.845Z,41.18
2018-08-23T01:42:15.193Z,42.53
2018-08-23T01:44:43.562Z,45.78
2018-08-23T01:47:11.989Z,47.55
2018-08-23T01:49:40.297Z,47.55
2018-08-23T01:52:08.658Z,51.23
2018-08-23T01:54:37.024Z,49.35
2018-08-23T01:57:05.446Z,50.63
2018-08-23T01:59:33.772Z,49.98
2018-08-23T02:02:06.272Z,55.77
2018-08-23T02:04:34.661Z,54.00
2018-08-23T02:07:02.978Z,56.10
2018-08-23T02:09:31.336Z,51.80
2018-08-23T02:11:59.730Z,53.33
2018-08-23T02:14:30.220Z,51.63
2018-08-23T02:16:58.576Z,53.83
2018-08-23T02:19:27.026Z,55.28
2018-08-23T02:21:55.385Z,55.90
2018-08-23T02:24:29.712Z,54.95
2018-08-23T02:26:58.080Z,59.83
2018-08-23T02:29:37.789Z,60.65
2018-08-23T02:32:06.885Z,61.10
2018-08-23T02:34:42.261Z,55.43
2018-08-23T02:37:12.373Z,57.23
2018-08-23T02:39:41.130Z,59.42
2018-08-23T02:42:17.700Z,58.20
2018-08-23T02:44:47.017Z,61.35
2018-08-23T02:47:16.212Z,57.83
2018-08-23T02:49:44.650Z,61.30
2018-08-23T02:52:13.012Z,61.20
2018-08-23T02:54:41.332Z,61.10
2018-08-23T02:57:11.954Z,62.90
2018-08-23T02:59:40.299Z,67.75
2018-08-23T03:02:12.839Z,70.50
2018-08-23T03:04:41.266Z,67.85
2018-08-23T03:07:09.604Z,67.17
2018-08-23T03:09:39.887Z,65.55
2018-08-23T03:12:10.447Z,65.95
2018-08-23T03:14:39.307Z,71.28
2018-08-23T03:17:22.471Z,62.50
2018-08-23T03:20:11.104Z,70.42
2018-08-23T03:22:39.869Z,63.90
2018-08-23T03:25:17.590Z,64.47
2018-08-23T03:27:45.978Z,67.05
2018-08-23T03:30:15.585Z,69.60
2018-08-23T03:32:43.956Z,64.97
2018-08-23T03:35:12.303Z,65.25
2018-08-23T03:37:40.637Z,71.37
2018-08-23T03:40:10.613Z,71.33
2018-08-23T03:42:39.018Z,67.03
2018-08-23T03:45:12.436Z,67.53
2018-08-23T03:47:46.044Z,62.20
2018-08-23T03:50:14.422Z,68.42
2018-08-23T03:52:46.639Z,64.60
2018-08-23T03:55:18.105Z,65.45
2018-08-23T03:57:50.820Z,67.00
2018-08-23T04:00:24.405Z,73.10
2018-08-23T04:02:52.714Z,68.20
2018-08-23T04:05:21.317Z,69.42
2018-08-23T04:07:49.644Z,70.27
2018-08-23T04:10:17.996Z,68.20
2018-08-23T04:12:46.316Z,67.23
2018-08-23T04:15:27.007Z,69.30
2018-08-23T04:17:55.272Z,64.32
2018-08-23T04:20:23.961Z,67.10
2018-08-23T04:22:52.527Z,62.10
2018-08-23T04:25:20.813Z,63.35
2018-08-23T04:27:49.202Z,65.40
2018-08-23T04:30:17.543Z,62.15
2018-08-23T04:32:48.057Z,65.83
2018-08-23T04:35:22.506Z,63.70
2018-08-23T04:37:51.434Z,61.60
2018-08-23T04:40:19.784Z,65.08
2018-08-23T04:42:48.154Z,63.68
2018-08-23T04:45:22.651Z,65.35
2018-08-23T04:48:08.819Z,68.25
2018-08-23T04:50:38.599Z,67.00
2018-08-23T04:53:06.980Z,71.17
2018-08-23T04:55:35.353Z,68.05
2018-08-23T04:58:04.301Z,74.55
2018-08-23T05:00:33.009Z,66.07
2018-08-23T05:03:01.425Z,67.20
2018-08-23T05:05:29.782Z,67.35
2018-08-23T05:07:58.129Z,70.05
2018-08-23T05:10:26.509Z,69.87
2018-08-23T05:12:54.953Z,64.17
2018-08-23T05:15:23.294Z,67.85
2018-08-23T05:17:51.635Z,71.05
2018-08-23T05:20:20.030Z,66.07
2018-08-23T05:22:53.835Z,64.53
2018-08-23T05:25:23.320Z,66.43
2018-08-23T05:28:05.130Z,64.80
2018-08-23T05:30:33.838Z,65.57
2018-08-23T05:33:10.569Z,64.20
2018-08-23T05:35:39.045Z,69.23
2018-08-23T05:38:08.180Z,68.70
2018-08-23T05:40:42.558Z,71.85
2018-08-23T05:43:11.218Z,66.57
2018-08-23T05:45:44.671Z,64.33
2018-08-23T05:48:20.674Z,68.45
2018-08-23T05:50:49.009Z,68.07
2018-08-23T05:53:18.295Z,62.25
2018-08-23T05:55:48.807Z,66.60
2018-08-23T05:58:32.933Z,59.50
2018-08-23T06:01:01.532Z,56.18
2018-08-23T06:03:29.932Z,59.63
2018-08-23T06:05:58.461Z,61.33
2018-08-23T06:08:26.811Z,61.13
2018-08-23T06:10:59.398Z,63.48
2018-08-23T06:13:27.740Z,62.30
2018-08-23T06:15:57.137Z,58.00
2018-08-23T06:18:26.232Z,69.92
2018-08-23T06:20:54.870Z,72.05
2018-08-23T06:23:33.311Z,66.60
2018-08-23T06:26:01.685Z,70.25
2018-08-23T06:28:30.044Z,66.20
2018-08-23T06:30:59.510Z,61.02
2018-08-23T06:33:36.884Z,64.32
2018-08-23T06:36:06.411Z,73.95
2018-08-23T06:38:35.770Z,79.25
2018-08-23T06:41:05.319Z,81.60
2018-08-23T06:43:34.387Z,89.00
2018-08-23T06:46:03.330Z,83.03
2018-08-23T06:48:31.996Z,86.72
2018-08-23T06:51:01.356Z,79.27
2018-08-23T06:53:40.293Z,85.28
2018-08-23T06:56:08.997Z,80.63
2018-08-23T06:58:37.660Z,79.27
2018-08-23T07:01:11.264Z,84.28
2018-08-23T07:03:46.185Z,83.35
2018-08-23T07:06:14.511Z,83.87
2018-08-23T07:08:42.823Z,82.42
2018-08-23T07:11:20.706Z,77.20
2018-08-23T07:13:56.327Z,74.47
2018-08-23T07:16:24.743Z,78.33
2018-08-23T07:18:53.077Z,78.00
2018-08-23T07:21:21.409Z,77.43
2018-08-23T07:23:49.756Z,82.62
2018-08-23T07:26:18.145Z,74.62
2018-08-23T07:28:46.459Z,78.55
2018-08-23T07:31:14.793Z,74.95
2018-08-23T07:33:45.022Z,79.55
2018-08-23T07:36:24.864Z,83.60
2018-08-23T07:38:53.144Z,74.17
2018-08-23T07:41:21.493Z,79.42
2018-08-23T07:43:49.806Z,77.70
2018-08-23T07:46:18.203Z,75.60
2018-08-23T07:48:46.528Z,75.05
2018-08-23T07:51:20.358Z,69.25
2018-08-23T07:53:48.763Z,65.97
2018-08-23T07:56:26.368Z,66.85
2018-08-23T07:58:55.891Z,66.90
2018-08-23T08:01:28.595Z,73.13
2018-08-23T08:03:57.819Z,64.95
2018-08-23T08:06:27.056Z,66.87
2018-08-23T08:08:56.871Z,61.08
2018-08-23T08:11:25.219Z,59.60
2018-08-23T08:13:58.917Z,62.10
2018-08-23T08:16:32.695Z,56.77
2018-08-23T08:19:01.177Z,50.28
2018-08-23T08:21:29.523Z,50.05
2018-08-23T08:23:59.040Z,44.83
2018-08-23T08:26:30.165Z,46.35
2018-08-23T08:28:58.655Z,41.73
2018-08-23T08:31:27.000Z,43.53
2018-08-23T08:33:59.344Z,47.55
2018-08-23T08:36:31.665Z,50.25
2018-08-23T08:39:00.883Z,46.02
2018-08-23T08:41:34.074Z,43.65
2018-08-23T08:44:02.583Z,43.47
2018-08-23T08:46:31.047Z,39.87
2018-08-23T08:48:59.552Z,41.83
2018-08-23T08:51:29.609Z,42.70
2018-08-23T08:53:59.517Z,42.23
2018-08-23T08:56:33.726Z,36.87
2018-08-23T08:59:02.072Z,37.67
2018-08-23T09:01:37.072Z,42.17
2018-08-23T09:04:05.474Z,38.63
2018-08-23T09:06:50.135Z,37.00
2018-08-23T09:09:36.538Z,35.80
2018-08-23T09:12:07.391Z,29.85
2018-08-23T09:14:36.339Z,33.13
2018-08-23T09:17:21.477Z,30.55
2018-08-23T09:19:57.298Z,29.75
2018-08-23T09:22:25.663Z,36.28
2018-08-23T09:24:53.997Z,27.42
2018-08-23T09:27:22.411Z,36.80
2018-08-23T09:29:50.718Z,32.08
2018-08-23T09:32:24.443Z,31.37
2018-08-23T09:35:00.077Z,30.80
2018-08-23T09:37:29.302Z,31.30
2018-08-23T09:39:57.790Z,28.73
2018-08-23T09:42:30.248Z,33.97
2018-08-23T09:45:09.108Z,28.92
2018-08-23T09:47:37.415Z,28.98
2018-08-23T09:50:06.170Z,19.30
2018-08-23T09:52:40.893Z,18.20
2018-08-23T09:55:10.808Z,16.62
2018-08-23T09:57:39.316Z,15.75
2018-08-23T10:00:10.030Z,17.98
2018-08-23T10:02:43.664Z,18.03
2018-08-23T10:05:17.385Z,24.82
2018-08-23T10:07:51.231Z,27.25
2018-08-23T10:10:24.939Z,24.25
2018-08-23T10:12:58.767Z,18.37
2018-08-23T10:15:32.498Z,19.60
2018-08-23T10:18:06.518Z,14.90
2018-08-23T10:20:44.910Z,19.32
2018-08-23T10:23:19.113Z,21.80
2018-08-23T10:25:49.673Z,21.33
2018-08-23T10:28:19.267Z,19.37
2018-08-23T10:30:48.004Z,18.40
2018-08-23T10:33:16.483Z,18.50
2018-08-23T10:35:47.329Z,15.90
2018-08-23T10:38:17.274Z,17.98
2018-08-23T10:40:46.720Z,16.37
2018-08-23T10:43:15.541Z,17.90
2018-08-23T10:45:44.213Z,17.45
2018-08-23T10:48:18.858Z,15.80
2018-08-23T10:50:48.196Z,13.35
2018-08-23T10:53:16.931Z,18.37
2018-08-23T10:55:45.522Z,18.90
2018-08-23T10:58:14.299Z,23.98
2018-08-23T11:00:42.897Z,21.87
2018-08-23T11:03:11.311Z,17.13
2018-08-23T11:05:39.646Z,17.00
2018-08-23T11:08:13.270Z,12.98
2018-08-23T11:10:46.953Z,15.78
2018-08-23T11:13:20.598Z,14.20
2018-08-23T11:15:48.951Z,18.73
2018-08-23T11:18:22.582Z,18.40
2018-08-23T11:20:51.451Z,14.60
2018-08-23T11:23:25.430Z,19.98
2018-08-23T11:25:53.782Z,15.43
2018-08-23T11:28:24.136Z,17.60
2018-08-23T11:30:53.124Z,13.83
2018-08-23T11:33:21.483Z,11.63
2018-08-23T11:35:49.845Z,13.58
2018-08-23T11:38:18.185Z,15.05
2018-08-23T11:40:46.509Z,14.43
2018-08-23T11:43:14.837Z,13.07
2018-08-23T11:45:43.185Z,16.77
2018-08-23T11:48:11.553Z,13.60
2018-08-23T11:50:39.889Z,15.05
2018-08-23T11:53:08.327Z,14.95
2018-08-23T11:55:36.705Z,15.30
2018-08-23T11:58:05.095Z,17.15
2018-08-23T12:00:33.397Z,15.65
2018-08-23T12:03:01.748Z,11.97
2018-08-23T12:05:30.418Z,13.08
2018-08-23T12:07:58.763Z,19.35
2018-08-23T12:10:27.119Z,18.37
2018-08-23T12:12:55.551Z,17.43
2018-08-23T12:15:32.839Z,16.50
2018-08-23T12:18:01.303Z,16.52
2018-08-23T12:20:29.590Z,11.68
2018-08-23T12:22:57.948Z,11.63
2018-08-23T12:25:26.347Z,17.73
2018-08-23T12:27:59.869Z,12.37
2018-08-23T12:30:28.301Z,11.23
2018-08-23T12:32:56.737Z,13.13
2018-08-23T12:35:26.083Z,20.50
2018-08-23T12:38:01.422Z,19.60
2018-08-23T12:40:35.820Z,14.60
2018-08-23T12:43:09.880Z,17.10
2018-08-23T12:45:40.335Z,24.20
2018-08-23T12:48:09.761Z,17.10
2018-08-23T12:50:38.194Z,14.23
2018-08-23T12:53:06.707Z,11.45
2018-08-23T12:55:35.352Z,15.32
2018-08-23T12:58:05.036Z,14.28
2018-08-23T13:00:33.405Z,16.15
2018-08-23T13:03:01.870Z,14.00
2018-08-23T13:05:30.098Z,16.02
2018-08-23T13:07:58.573Z,11.47
2018-08-23T13:10:26.912Z,11.85
2018-08-23T13:12:55.296Z,11.48
2018-08-23T13:15:23.688Z,11.80
2018-08-23T13:17:52.125Z,11.03
2018-08-23T13:20:20.452Z,10.85
2018-08-23T13:22:48.799Z,10.23
2018-08-23T13:25:17.107Z,10.40
2018-08-23T13:27:45.537Z,11.40
2018-08-23T13:30:13.876Z,15.93
2018-08-23T13:32:42.245Z,12.30
2018-08-23T13:35:10.621Z,11.73
2018-08-23T13:37:38.987Z,9.75
2018-08-23T13:40:11.563Z,14.93
2018-08-23T13:42:40.059Z,14.73
2018-08-23T13:45:08.504Z,17.70
2018-08-23T13:47:36.887Z,9.83
2018-08-23T13:50:05.227Z,11.55
2018-08-23T13:52:33.553Z,14.30
2018-08-23T13:55:01.963Z,15.60
2018-08-23T13:57:30.298Z,15.50
2018-08-23T13:59:58.658Z,16.85
2018-08-23T14:02:27.000Z,11.35
2018-08-23T14:04:55.703Z,12.57
2018-08-23T14:07:24.132Z,8.65
2018-08-23T14:09:52.386Z,11.20
2018-08-23T14:12:20.688Z,9.93
2018-08-23T14:14:49.016Z,9.35
2018-08-23T14:17:17.323Z,10.13
2018-08-23T14:19:45.708Z,13.83
2018-08-23T14:22:14.059Z,13.28
2018-08-23T14:24:42.368Z,12.07
2018-08-23T14:27:10.720Z,11.10
2018-08-23T14:29:38.995Z,10.68
2018-08-23T14:32:07.367Z,10.90
2018-08-23T14:34:35.691Z,16.77
2018-08-23T14:37:04.018Z,9.75
2018-08-23T14:39:32.550Z,11.48
2018-08-23T14:42:00.863Z,11.53
2018-08-23T14:44:29.186Z,11.40
2018-08-23T14:47:02.888Z,8.98
2018-08-23T14:49:36.072Z,15.68
2018-08-23T14:52:05.788Z,11.25
2018-08-23T14:54:39.449Z,12.78
2018-08-23T14:57:13.136Z,9.93
2018-08-23T14:59:41.673Z,13.08
2018-08-23T15:02:10.000Z,10.65
2018-08-23T15:04:38.446Z,13.75
2018-08-23T15:07:07.132Z,9.25
2018-08-23T15:09:35.477Z,10.60
2018-08-23T15:12:03.992Z,10.23
2018-08-23T15:14:32.345Z,11.00
2018-08-23T15:17:00.696Z,10.30
2018-08-23T15:19:29.048Z,11.33
2018-08-23T15:21:57.384Z,9.15
2018-08-23T15:24:25.691Z,14.50
2018-08-23T15:26:54.055Z,10.32
2018-08-23T15:29:22.435Z,11.05
2018-08-23T15:31:50.747Z,10.13
2018-08-23T15:34:19.082Z,15.10
2018-08-23T15:36:47.411Z,11.88
2018-08-23T15:39:16.492Z,12.40
2018-08-23T15:41:44.872Z,11.67
2018-08-23T15:44:14.071Z,12.50
2018-08-23T15:46:49.252Z,14.58
2018-08-23T15:49:17.812Z,8.83
2018-08-23T15:51:46.378Z,16.82
2018-08-23T15:54:19.030Z,8.55
2018-08-23T15:56:47.521Z,9.90
2018-08-23T15:59:16.139Z,15.40
2018-08-23T16:01:44.489Z,10.03
2018-08-23T16:04:12.861Z,11.97
2018-08-23T16:06:41.208Z,10.37
2018-08-23T16:09:10.711Z,8.63
2018-08-23T16:11:39.108Z,9.08
2018-08-23T16:14:07.714Z,7.95
2018-08-23T16:16:41.545Z,12.70
2018-08-23T16:19:15.306Z,11.20
2018-08-23T16:21:43.636Z,12.88
2018-08-23T16:24:11.950Z,12.40
2018-08-23T16:26:46.370Z,10.30
2018-08-23T16:29:14.672Z,11.40
2018-08-23T16:31:42.994Z,11.75
2018-08-23T16:34:11.307Z,8.35
2018-08-23T16:36:39.654Z,12.25
2018-08-23T16:39:08.564Z,9.55
2018-08-23T16:41:36.934Z,15.53
2018-08-23T16:44:05.301Z,12.10
2018-08-23T16:46:33.643Z,14.83
2018-08-23T16:49:01.968Z,14.07
2018-08-23T16:51:30.258Z,15.63
2018-08-23T16:53:58.664Z,17.20
2018-08-23T16:56:27.007Z,20.10
2018-08-23T16:58:55.428Z,12.60
2018-08-23T17:01:23.767Z,16.70
2018-08-23T17:03:53.128Z,16.55
2018-08-23T17:06:22.371Z,23.98
2018-08-23T17:08:51.213Z,20.65
2018-08-23T17:11:19.553Z,22.40
2018-08-23T17:13:47.879Z,15.03
2018-08-23T17:16:21.549Z,23.38
2018-08-23T17:18:50.101Z,26.77
2018-08-23T17:21:18.459Z,23.05
2018-08-23T17:23:46.792Z,28.37
2018-08-23T17:26:15.113Z,18.95
2018-08-23T17:28:43.452Z,20.90
2018-08-23T17:31:12.142Z,17.98
2018-08-23T17:33:40.474Z,22.48
2018-08-23T17:36:08.843Z,16.70
2018-08-23T17:38:37.286Z,18.92
2018-08-23T17:41:05.700Z,13.10
2018-08-23T17:43:34.007Z,19.32
2018-08-23T17:46:02.385Z,18.98
2018-08-23T17:48:30.770Z,26.13
2018-08-23T17:50:59.035Z,22.22
2018-08-23T17:53:27.351Z,19.73
2018-08-23T17:55:55.717Z,25.20
2018-08-23T17:58:24.080Z,26.75
2018-08-23T18:00:52.619Z,14.20
2018-08-23T18:03:20.965Z,18.20
2018-08-23T18:05:49.302Z,20.10
2018-08-23T18:08:17.630Z,16.00
2018-08-23T18:10:45.989Z,20.30
2018-08-23T18:13:14.290Z,17.65
2018-08-23T18:15:47.870Z,16.17
2018-08-23T18:18:16.157Z,19.02
2018-08-23T18:20:44.491Z,19.70
2018-08-23T18:23:12.873Z,18.70
2018-08-23T18:25:41.235Z,17.20
2018-08-23T18:28:09.612Z,19.92
2018-08-23T18:30:37.976Z,22.77
2018-08-23T18:33:06.343Z,30.50
2018-08-23T18:35:34.658Z,20.80
2018-08-23T18:38:02.987Z,21.33
2018-08-23T18:40:31.305Z,16.80
2018-08-23T18:42:59.602Z,18.23
2018-08-23T18:45:27.945Z,17.82
2018-08-23T18:47:56.278Z,17.17
2018-08-23T18:50:24.637Z,22.30
2018-08-23T18:52:52.949Z,22.10
2018-08-23T18:55:21.255Z,20.50
2018-08-23T18:57:49.591Z,27.50
2018-08-23T19:00:18.024Z,19.57
2018-08-23T19:02:46.313Z,18.48
2018-08-23T19:05:14.653Z,15.90
2018-08-23T19:07:43.770Z,20.50
2018-08-23T19:10:12.656Z,23.00
2018-08-23T19:12:41.025Z,20.12
2018-08-23T19:15:09.556Z,18.60
2018-08-23T19:17:40.079Z,51.33
2018-08-23T19:20:09.790Z,20.50
2018-08-23T19:22:38.234Z,21.20
2018-08-23T19:25:07.627Z,18.77
2018-08-23T19:27:35.910Z,36.10
2018-08-23T19:30:04.665Z,22.82
2018-08-23T19:32:33.044Z,22.03
2018-08-23T19:35:01.368Z,20.25
2018-08-23T19:37:29.695Z,20.95
2018-08-23T19:39:58.035Z,20.95
2018-08-23T19:42:26.402Z,30.68
2018-08-23T19:44:59.297Z,17.07
2018-08-23T19:47:33.045Z,16.23
2018-08-23T19:50:02.613Z,13.18
2018-08-23T19:52:30.926Z,14.30
2018-08-23T19:54:59.261Z,16.40
2018-08-23T19:57:27.728Z,16.10
2018-08-23T19:59:56.052Z,16.07
2018-08-23T20:02:24.349Z,12.60
2018-08-23T20:04:52.735Z,14.83
2018-08-23T20:07:21.100Z,19.12
2018-08-23T20:09:49.442Z,19.30
2018-08-23T20:12:17.878Z,11.97
2018-08-23T20:14:46.202Z,12.70
2018-08-23T20:17:14.583Z,14.45
2018-08-23T20:19:43.752Z,10.32
2018-08-23T20:22:12.144Z,15.48
2018-08-23T20:24:40.456Z,15.60
2018-08-23T20:27:08.839Z,13.13
2018-08-23T20:29:37.151Z,15.98
2018-08-23T20:32:05.544Z,12.20
2018-08-23T20:34:33.885Z,15.07
2018-08-23T20:37:02.242Z,12.27
2018-08-23T20:39:30.579Z,12.80
2018-08-23T20:41:58.928Z,12.30
2018-08-23T20:44:27.596Z,11.08
2018-08-23T20:46:56.491Z,11.55
2018-08-23T20:49:24.870Z,10.78
2018-08-23T20:51:53.206Z,11.55
2018-08-23T20:54:21.632Z,11.63
2018-08-23T20:56:49.967Z,10.80
2018-08-23T20:59:18.346Z,10.18
2018-08-23T21:01:46.687Z,12.82
2018-08-23T21:04:15.019Z,11.63
2018-08-23T21:06:43.375Z,11.30
2018-08-23T21:09:13.071Z,9.45
2018-08-23T21:11:41.478Z,8.93
2018-08-23T21:14:10.542Z,9.33
2018-08-23T21:16:38.950Z,9.35
2018-08-23T21:19:07.318Z,10.90
2018-08-23T21:21:35.628Z,11.33
2018-08-23T21:24:03.965Z,9.45
2018-08-23T21:26:32.432Z,8.83
2018-08-23T21:29:00.774Z,10.70
2018-08-23T21:31:29.135Z,9.83
2018-08-23T21:33:57.421Z,14.38
2018-08-23T21:36:25.734Z,9.20
2018-08-23T21:38:54.073Z,9.33
2018-08-23T21:41:22.452Z,10.50
2018-08-23T21:43:50.764Z,11.17
2018-08-23T21:46:19.119Z,11.60
2018-08-23T21:48:47.432Z,12.53
2018-08-23T21:51:15.769Z,11.18
2018-08-23T21:53:44.117Z,10.80
2018-08-23T21:56:12.400Z,9.68
2018-08-23T21:58:40.765Z,13.10
2018-08-23T22:01:10.057Z,11.97
2018-08-23T22:03:38.940Z,9.00
2018-08-23T22:06:07.282Z,9.55
2018-08-23T22:08:35.801Z,8.35
2018-08-23T22:11:04.100Z,8.73
2018-08-23T22:13:32.761Z,5.97
2018-08-23T22:16:01.113Z,7.37
2018-08-23T22:18:29.455Z,11.40
2018-08-23T22:20:57.758Z,7.35
2018-08-23T22:23:26.071Z,9.65
2018-08-23T22:25:54.350Z,9.25
2018-08-23T22:28:22.655Z,5.83
2018-08-23T22:30:50.997Z,6.33
2018-08-23T22:33:22.130Z,8.13
2018-08-23T22:35:50.440Z,7.17
2018-08-23T22:38:18.790Z,7.15
2018-08-23T22:40:47.154Z,5.47
2018-08-23T22:43:15.464Z,9.20
2018-08-23T22:45:43.771Z,4.85
2018-08-23T22:48:12.080Z,5.33
2018-08-23T22:50:40.397Z,9.18
2018-08-23T22:53:08.687Z,6.25
2018-08-23T22:55:37.105Z,6.78
2018-08-23T22:58:05.859Z,6.50
2018-08-23T23:00:40.257Z,6.20
2018-08-23T23:03:14.012Z,6.05
2018-08-23T23:05:42.727Z,4.60
2018-08-23T23:08:17.653Z,6.33
2018-08-23T23:10:45.964Z,5.15
2018-08-23T23:13:14.273Z,7.33
2018-08-23T23:15:42.620Z,8.10
2018-08-23T23:18:10.935Z,8.28
2018-08-23T23:20:39.327Z,8.10
2018-08-23T23:23:07.678Z,6.30
2018-08-23T23:25:36.014Z,7.75
2018-08-23T23:28:04.356Z,8.53
2018-08-23T23:30:32.746Z,5.42
2018-08-23T23:33:01.062Z,5.15
2018-08-23T23:35:29.394Z,6.45
2018-08-23T23:37:57.720Z,6.47
2018-08-23T23:40:26.053Z,7.95
2018-08-23T23:42:54.411Z,6.78
2018-08-23T23:45:22.713Z,4.72
2018-08-23T23:47:51.043Z,5.62
2018-08-23T23:50:19.338Z,3.70
2018-08-23T23:52:47.655Z,4.25
2018-08-23T23:55:15.977Z,4.72
2018-08-23T23:57:44.371Z,6.33
